Observation data for Dimmitt on 01/19/2019      Previous  Date  Next       Current Mesonet Observations  Soil Data  Daily Summary Page  Observations in Plain Language
KDMS 190600Z 34023G31KT M01/M02 A3007 RMK A01 T10081016  RH  095%=      5-min Rain = 0
KDMS 190605Z 34023G30KT M01/M02 A3007 RMK A01 T10091016  RH  095%=      5-min Rain = 0
KDMS 190610Z 34026G33KT M01/M02 A3007 RMK A01 T10081017  RH  095%=      5-min Rain = 0
KDMS 190615Z 35023G29KT M01/M02 A3007 RMK A01 T10091019  RH  094%=      5-min Rain = 0
KDMS 190620Z 35022G28KT M01/M02 A3007 RMK A01 T10101019  RH  094%=      5-min Rain = 0
KDMS 190625Z 35020G25KT M01/M02 A3008 RMK A01 T10091018  RH  095%=      5-min Rain = 0
KDMS 190630Z 34023G31KT M01/M02 A3008 RMK A01 T10091018  RH  095%=      5-min Rain = 0
KDMS 190635Z 35026G33KT M01/M02 A3008 RMK A01 T10101021  RH  093%=      5-min Rain = 0
KDMS 190640Z 35023G30KT M01/M02 A3008 RMK A01 T10111023  RH  092%=      5-min Rain = 0
KDMS 190645Z 35022G28KT M01/M02 A3008 RMK A01 T10121024  RH  093%=      5-min Rain = 0
KDMS 190650Z 34019G24KT M01/M02 A3009 RMK A01 T10141024  RH  093%=      5-min Rain = 0
KDMS 190655Z 34020KT M01/M02 A3009 RMK A01 T10141024  RH  093%=      5-min Rain = 0
KDMS 190700Z 34023G32KT M01/M02 A3009 RMK A01 T10131024  RH  093%=      5-min Rain = 0
KDMS 190705Z 34023G29KT M01/M03 A3009 RMK A01 T10131026  RH  092%=      5-min Rain = 0
KDMS 190710Z 34021KT M02/M03 A3009 RMK A01 T10151027  RH  092%=      5-min Rain = 0
KDMS 190715Z 34019KT M02/M03 A301 RMK A01 T10151027  RH  092%=      5-min Rain = 0
KDMS 190720Z 34017G22KT M02/M03 A301 RMK A01 T10161028  RH  092%=      5-min Rain = 0
KDMS 190725Z 34018G24KT M02/M03 A301 RMK A01 T10161029  RH  092%=      5-min Rain = 0
KDMS 190730Z 34016G22KT M02/M03 A3011 RMK A01 T10161029  RH  092%=      5-min Rain = 0
KDMS 190735Z 34018G23KT M02/M03 A3011 RMK A01 T10161029  RH  092%=      5-min Rain = 0
KDMS 190740Z 34018KT M02/M03 A3011 RMK A01 T10161030  RH  091%=      5-min Rain = 0
KDMS 190745Z 35019G25KT M02/M03 A3011 RMK A01 T10171032  RH  090%=      5-min Rain = 0
KDMS 190750Z 35019G24KT M02/M04 A3011 RMK A01 T10191035  RH  090%=      5-min Rain = 0
KDMS 190755Z 35019G25KT M02/M04 A3012 RMK A01 T10201036  RH  090%=      5-min Rain = 0
KDMS 190800Z 35015KT M02/M04 A3012 RMK A01 T10221036  RH  090%=      5-min Rain = 0
KDMS 190805Z 35016KT M02/M04 A3012 RMK A01 T10221036  RH  091%=      5-min Rain = 0
KDMS 190810Z 34017KT M02/M04 A3012 RMK A01 T10221036  RH  091%=      5-min Rain = 0
KDMS 190815Z 34016G21KT M02/M04 A3012 RMK A01 T10221036  RH  091%=      5-min Rain = 0
KDMS 190820Z 34015KT M02/M04 A3012 RMK A01 T10231036  RH  091%=      5-min Rain = 0
KDMS 190825Z 34015KT M02/M04 A3013 RMK A01 T10231036  RH  092%=      5-min Rain = 0
KDMS 190830Z 33015KT M02/M04 A3013 RMK A01 T10231035  RH  092%=      5-min Rain = 0
KDMS 190835Z 33016KT M02/M04 A3013 RMK A01 T10231035  RH  092%=      5-min Rain = 0
KDMS 190840Z 33017G23KT M02/M04 A3013 RMK A01 T10221035  RH  092%=      5-min Rain = 0
KDMS 190845Z 33017KT M02/M04 A3013 RMK A01 T10221035  RH  091%=      5-min Rain = 0
KDMS 190850Z 34016G23KT M02/M04 A3012 RMK A01 T10221035  RH  091%=      5-min Rain = 0
KDMS 190855Z 34019G25KT M02/M03 A3012 RMK A01 T10211034  RH  091%=      5-min Rain = 0
KDMS 190900Z 33020G26KT M02/M03 A3012 RMK A01 T10201034  RH  091%=      5-min Rain = 0
KDMS 190905Z 33021G27KT M02/M03 A3012 RMK A01 T10191034  RH  090%=      5-min Rain = 0
KDMS 190910Z 33020G26KT M02/M03 A3013 RMK A01 T10191034  RH  090%=      5-min Rain = 0
KDMS 190915Z 33020G25KT M02/M03 A3013 RMK A01 T10191034  RH  090%=      5-min Rain = 0
KDMS 190920Z 33019G24KT M02/M04 A3014 RMK A01 T10191035  RH  090%=      5-min Rain = 0
KDMS 190925Z 33019G24KT M02/M04 A3014 RMK A01 T10191035  RH  089%=      5-min Rain = 0
KDMS 190930Z 33018G25KT M02/M04 A3014 RMK A01 T10191035  RH  089%=      5-min Rain = 0
KDMS 190935Z 33018KT M02/M04 A3014 RMK A01 T10201036  RH  089%=      5-min Rain = 0
KDMS 190940Z 33016KT M02/M04 A3014 RMK A01 T10211036  RH  090%=      5-min Rain = 0
KDMS 190945Z 33015G20KT M02/M04 A3015 RMK A01 T10211036  RH  090%=      5-min Rain = 0
KDMS 190950Z 32016KT M02/M04 A3015 RMK A01 T10221037  RH  090%=      5-min Rain = 0
KDMS 190955Z 32015KT M02/M04 A3016 RMK A01 T10231037  RH  090%=      5-min Rain = 0
KDMS 191000Z 32014KT M02/M04 A3016 RMK A01 T10241038  RH  091%=      5-min Rain = 0
KDMS 191005Z 33013KT M03/M04 A3016 RMK A01 T10251038  RH  091%=      5-min Rain = 0
KDMS 191010Z 33012KT M03/M04 A3016 RMK A01 T10251039  RH  091%=      5-min Rain = 0
KDMS 191015Z 33012KT M03/M04 A3017 RMK A01 T10251039  RH  091%=      5-min Rain = 0
KDMS 191020Z 33011KT M03/M04 A3017 RMK A01 T10261040  RH  091%=      5-min Rain = 0
KDMS 191025Z 32011KT M03/M04 A3017 RMK A01 T10281041  RH  091%=      5-min Rain = 0
KDMS 191030Z 32010KT M03/M04 A3017 RMK A01 T10281041  RH  091%=      5-min Rain = 0
KDMS 191035Z 33009KT M03/M04 A3017 RMK A01 T10291042  RH  091%=      5-min Rain = 0
KDMS 191040Z 33008KT M03/M04 A3017 RMK A01 T10301043  RH  092%=      5-min Rain = 0
KDMS 191045Z 33007KT M03/M04 A3017 RMK A01 T10321044  RH  092%=      5-min Rain = 0
KDMS 191050Z 32006KT M03/M05 A3017 RMK A01 T10341045  RH  092%=      5-min Rain = 0
KDMS 191055Z 32007KT M04/M05 A3017 RMK A01 T10351047  RH  092%=      5-min Rain = 0
KDMS 191100Z 31007KT M04/M05 A3017 RMK A01 T10371048  RH  093%=      5-min Rain = 0
KDMS 191105Z 31007KT M04/M05 A3017 RMK A01 T10381048  RH  093%=      5-min Rain = 0
KDMS 191110Z 31007KT M04/M05 A3017 RMK A01 T10391049  RH  093%=      5-min Rain = 0
KDMS 191115Z 31008KT M04/M05 A3017 RMK A01 T10391049  RH  093%=      5-min Rain = 0
KDMS 191120Z 32008KT M04/M05 A3017 RMK A01 T10391049  RH  093%=      5-min Rain = 0
KDMS 191125Z 32008KT M04/M05 A3017 RMK A01 T10391048  RH  093%=      5-min Rain = 0
KDMS 191130Z 32009KT M04/M05 A3017 RMK A01 T10381048  RH  093%=      5-min Rain = 0
KDMS 191135Z 33010KT M03/M04 A3017 RMK A01 T10331044  RH  092%=      5-min Rain = 0
KDMS 191140Z 33011KT M03/M04 A3017 RMK A01 T10301044  RH  091%=      5-min Rain = 0
KDMS 191145Z 33012KT M03/M04 A3017 RMK A01 T10281043  RH  090%=      5-min Rain = 0
KDMS 191150Z 33012KT M03/M04 A3017 RMK A01 T10251041  RH  089%=      5-min Rain = 0
KDMS 191155Z 33013KT M02/M04 A3017 RMK A01 T10241041  RH  089%=      5-min Rain = 0
KDMS 191200Z 33013KT M02/M04 A3017 RMK A01 T10231040  RH  089%=      5-min Rain = 0
KDMS 191205Z 33013KT M02/M04 A3017 RMK A01 T10231040  RH  089%=      5-min Rain = 0
KDMS 191210Z 33013KT M02/M04 A3018 RMK A01 T10221039  RH  089%=      5-min Rain = 0
KDMS 191215Z 32013KT M02/M04 A3018 RMK A01 T10231040  RH  089%=      5-min Rain = 0
KDMS 191220Z 33014KT M02/M04 A3019 RMK A01 T10231040  RH  089%=      5-min Rain = 0
KDMS 191225Z 33014KT M02/M04 A3019 RMK A01 T10231040  RH  088%=      5-min Rain = 0
KDMS 191230Z 33014KT M02/M04 A3019 RMK A01 T10221039  RH  088%=      5-min Rain = 0
KDMS 191235Z 33013KT M02/M04 A3019 RMK A01 T10221040  RH  088%=      5-min Rain = 0
KDMS 191240Z 32012KT M02/M04 A302 RMK A01 T10241041  RH  088%=      5-min Rain = 0
KDMS 191245Z 32012KT M03/M04 A302 RMK A01 T10261042  RH  089%=      5-min Rain = 0
KDMS 191250Z 31012KT M03/M04 A302 RMK A01 T10261042  RH  089%=      5-min Rain = 0
KDMS 191255Z 31012KT M03/M04 A302 RMK A01 T10271043  RH  089%=      5-min Rain = 0
KDMS 191300Z 32012KT M03/M04 A3021 RMK A01 T10271044  RH  089%=      5-min Rain = 0
KDMS 191305Z 32012KT M03/M04 A3021 RMK A01 T10281044  RH  089%=      5-min Rain = 0
KDMS 191310Z 32013KT M03/M04 A3021 RMK A01 T10271044  RH  088%=      5-min Rain = 0
KDMS 191315Z 32012KT M03/M04 A3021 RMK A01 T10261044  RH  088%=      5-min Rain = 0
KDMS 191320Z 32012KT M03/M04 A3021 RMK A01 T10261044  RH  088%=      5-min Rain = 0
KDMS 191325Z 32012KT M03/M04 A3022 RMK A01 T10251044  RH  087%=      5-min Rain = 0
KDMS 191330Z 32010KT M03/M05 A3022 RMK A01 T10271045  RH  088%=      5-min Rain = 0
KDMS 191335Z 31011KT M03/M05 A3022 RMK A01 T10281045  RH  088%=      5-min Rain = 0
KDMS 191340Z 31011KT M03/M05 A3022 RMK A01 T10281045  RH  088%=      5-min Rain = 0
KDMS 191345Z 31010KT M03/M05 A3022 RMK A01 T10311047  RH  089%=      5-min Rain = 0
KDMS 191350Z 31011KT M03/M05 A3022 RMK A01 T10321047  RH  089%=      5-min Rain = 0
KDMS 191355Z 31011KT M03/M05 A3022 RMK A01 T10311047  RH  089%=      5-min Rain = 0
KDMS 191400Z 32011KT M03/M05 A3023 RMK A01 T10311047  RH  089%=      5-min Rain = 0
KDMS 191405Z 31011KT M03/M05 A3023 RMK A01 T10321048  RH  089%=      5-min Rain = 0
KDMS 191410Z 31010KT M03/M05 A3023 RMK A01 T10341049  RH  090%=      5-min Rain = 0
KDMS 191415Z 31011KT M03/M05 A3024 RMK A01 T10341049  RH  090%=      5-min Rain = 0
KDMS 191420Z 32011KT M03/M05 A3024 RMK A01 T10331048  RH  090%=      5-min Rain = 0
KDMS 191425Z 32011KT M03/M05 A3024 RMK A01 T10311047  RH  089%=      5-min Rain = 0
KDMS 191430Z 32012KT M03/M05 A3024 RMK A01 T10291046  RH  088%=      5-min Rain = 0
KDMS 191435Z 32012KT M03/M04 A3025 RMK A01 T10261044  RH  088%=      5-min Rain = 0
KDMS 191440Z 32013KT M02/M04 A3025 RMK A01 T10221042  RH  087%=      5-min Rain = 0
KDMS 191445Z 32013KT M02/M04 A3026 RMK A01 T10191040  RH  086%=      5-min Rain = 0
KDMS 191450Z 32013KT M02/M04 A3026 RMK A01 T10161039  RH  085%=      5-min Rain = 0
KDMS 191455Z 32012KT M01/M04 A3026 RMK A01 T10141037  RH  085%=      5-min Rain = 0
KDMS 191500Z 32013KT M01/M04 A3027 RMK A01 T10121036  RH  084%=      5-min Rain = 0
KDMS 191505Z 32012KT M01/M04 A3027 RMK A01 T10101035  RH  084%=      5-min Rain = 0
KDMS 191510Z 32012KT M01/M03 A3027 RMK A01 T10091033  RH  084%=      5-min Rain = 0
KDMS 191515Z 32012KT M01/M03 A3027 RMK A01 T10081032  RH  084%=      5-min Rain = 0
KDMS 191520Z 32012KT M01/M03 A3027 RMK A01 T10071031  RH  084%=      5-min Rain = 0
KDMS 191525Z 32013KT M01/M03 A3028 RMK A01 T10051030  RH  084%=      5-min Rain = 0
KDMS 191530Z 32012KT M00/M03 A3028 RMK A01 T10041028  RH  084%=      5-min Rain = 0
KDMS 191535Z 32013KT M00/M03 A3028 RMK A01 T10011026  RH  084%=      5-min Rain = 0
KDMS 191540Z 33013KT 00/M02 A3028 RMK A01 T00021024  RH  083%=      5-min Rain = 0
KDMS 191545Z 33013KT 01/M02 A3028 RMK A01 T00051024  RH  081%=      5-min Rain = 0
KDMS 191550Z 33013KT 01/M02 A3029 RMK A01 T00071024  RH  080%=      5-min Rain = 0
KDMS 191555Z 33012KT 01/M02 A3029 RMK A01 T00101021  RH  080%=      5-min Rain = 0
KDMS 191600Z 34013KT 01/M02 A3029 RMK A01 T00121021  RH  079%=      5-min Rain = 0
KDMS 191605Z 34012KT 01/M02 A3029 RMK A01 T00131019  RH  080%=      5-min Rain = 0
KDMS 191610Z 34013KT 01/M02 A3029 RMK A01 T00141019  RH  079%=      5-min Rain = 0
KDMS 191615Z 34013KT 02/M02 A303 RMK A01 T00151018  RH  079%=      5-min Rain = 0
KDMS 191620Z 34013KT 02/M02 A303 RMK A01 T00171016  RH  079%=      5-min Rain = 0
KDMS 191625Z 34014KT 02/M02 A303 RMK A01 T00191016  RH  079%=      5-min Rain = 0
KDMS 191630Z 34013KT 02/M02 A3029 RMK A01 T00211015  RH  078%=      5-min Rain = 0
KDMS 191635Z 34014KT 02/M01 A303 RMK A01 T00231014  RH  077%=      5-min Rain = 0
KDMS 191640Z 34013KT 03/M01 A303 RMK A01 T00251012  RH  078%=      5-min Rain = 0
KDMS 191645Z 34014KT 03/M01 A303 RMK A01 T00261012  RH  077%=      5-min Rain = 0
KDMS 191650Z 33014KT 03/M01 A303 RMK A01 T00281011  RH  076%=      5-min Rain = 0
KDMS 191655Z 33014KT 03/M01 A3031 RMK A01 T00301010  RH  076%=      5-min Rain = 0
KDMS 191700Z 33014KT 03/M01 A3031 RMK A01 T00321009  RH  075%=      5-min Rain = 0
KDMS 191705Z 34016KT 03/M01 A3031 RMK A01 T00341008  RH  074%=      5-min Rain = 0
KDMS 191710Z 33016KT 04/M01 A3031 RMK A01 T00351010  RH  073%=      5-min Rain = 0
KDMS 191715Z 34016KT 04/M01 A3031 RMK A01 T00371009  RH  073%=      5-min Rain = 0
KDMS 191720Z 34015KT 04/M01 A3031 RMK A01 T00391006  RH  073%=      5-min Rain = 0
KDMS 191725Z 34016KT 04/M01 A3032 RMK A01 T00391008  RH  072%=      5-min Rain = 0
KDMS 191730Z 33016G22KT 04/M01 A3032 RMK A01 T00411006  RH  072%=      5-min Rain = 0
KDMS 191735Z 33017G22KT 04/M01 A3031 RMK A01 T00401009  RH  071%=      5-min Rain = 0
KDMS 191740Z 34017G22KT 04/M01 A3032 RMK A01 T00401010  RH  070%=      5-min Rain = 0
KDMS 191745Z 33016KT 04/M01 A3032 RMK A01 T00431007  RH  070%=      5-min Rain = 0
KDMS 191750Z 33016KT 04/M01 A3032 RMK A01 T00441008  RH  070%=      5-min Rain = 0
KDMS 191755Z 33016KT 05/M01 A3032 RMK A01 T00461006  RH  070%=      5-min Rain = 0
KDMS 191800Z 33016KT 05/M01 A3032 RMK A01 T00471006  RH  069%=      5-min Rain = 0
KDMS 191805Z 33017KT 05/M01 A3032 RMK A01 T00471008  RH  068%=      5-min Rain = 0
KDMS 191810Z 33016G21KT 05/M01 A3032 RMK A01 T00481007  RH  068%=      5-min Rain = 0
KDMS 191815Z 34017KT 05/M01 A3031 RMK A01 T00491008  RH  067%=      5-min Rain = 0
KDMS 191820Z 34015KT 05/M01 A3031 RMK A01 T00511006  RH  067%=      5-min Rain = 0
KDMS 191825Z 33014KT 05/M01 A3031 RMK A01 T00511005  RH  068%=      5-min Rain = 0
KDMS 191830Z 34014G19KT 06/M00 A3031 RMK A01 T00551001  RH  068%=      5-min Rain = 0
KDMS 191835Z 34013G18KT 06/M00 A3031 RMK A01 T00561002  RH  067%=      5-min Rain = 0
KDMS 191840Z 34015KT 06/M01 A303 RMK A01 T00551006  RH  066%=      5-min Rain = 0
KDMS 191845Z 33015KT 06/M01 A303 RMK A01 T00561005  RH  066%=      5-min Rain = 0
KDMS 191850Z 33013KT 06/M00 A303 RMK A01 T00571004  RH  065%=      5-min Rain = 0
KDMS 191855Z 33014KT 06/M00 A303 RMK A01 T00601004  RH  064%=      5-min Rain = 0
KDMS 191900Z 34013KT 06/00 A303 RMK A01 T00640002  RH  065%=      5-min Rain = 0
KDMS 191905Z 34014KT 06/M01 A303 RMK A01 T00621005  RH  063%=      5-min Rain = 0
KDMS 191910Z 35013KT 06/M01 A303 RMK A01 T00621006  RH  063%=      5-min Rain = 0
KDMS 191915Z 34014KT 07/M00 A303 RMK A01 T00651001  RH  063%=      5-min Rain = 0
KDMS 191920Z 34013G22KT 07/M00 A3029 RMK A01 T00661001  RH  063%=      5-min Rain = 0
KDMS 191925Z 35012KT 07/00 A3029 RMK A01 T007000-0  RH  062%=      5-min Rain = 0
KDMS 191930Z 35012KT 07/M00 A3029 RMK A01 T00701002  RH  061%=      5-min Rain = 0
KDMS 191935Z 35012KT 07/M00 A3028 RMK A01 T00691003  RH  061%=      5-min Rain = 0
KDMS 191940Z 34012KT 07/M00 A3028 RMK A01 T00711003  RH  060%=      5-min Rain = 0
KDMS 191945Z 34014G19KT 07/M01 A3028 RMK A01 T00691008  RH  058%=      5-min Rain = 0
KDMS 191950Z 34014KT 07/M01 A3028 RMK A01 T00701007  RH  059%=      5-min Rain = 0
KDMS 191955Z 33015KT 07/M01 A3028 RMK A01 T00691009  RH  058%=      5-min Rain = 0
KDMS 192000Z 33013G19KT 07/M01 A3028 RMK A01 T00711005  RH  059%=      5-min Rain = 0
KDMS 192005Z 34013KT 07/M01 A3028 RMK A01 T00711006  RH  059%=      5-min Rain = 0
KDMS 192010Z 34013KT 07/M01 A3027 RMK A01 T00711006  RH  059%=      5-min Rain = 0
KDMS 192015Z 32012G17KT 07/M00 A3027 RMK A01 T00731003  RH  059%=      5-min Rain = 0
KDMS 192020Z 33011G16KT 07/M01 A3027 RMK A01 T00731005  RH  058%=      5-min Rain = 0
KDMS 192025Z 34013G19KT 07/M01 A3026 RMK A01 T00731007  RH  057%=      5-min Rain = 0
KDMS 192030Z 34014KT 08/M01 A3026 RMK A01 T00761005  RH  057%=      5-min Rain = 0
KDMS 192035Z 34014KT 08/M01 A3026 RMK A01 T00751007  RH  057%=      5-min Rain = 0
KDMS 192040Z 34013G19KT 08/M01 A3026 RMK A01 T00751007  RH  056%=      5-min Rain = 0
KDMS 192045Z 32012G17KT 08/M00 A3026 RMK A01 T00781004  RH  057%=      5-min Rain = 0
KDMS 192050Z 31011G18KT 08/M01 A3026 RMK A01 T00771007  RH  056%=      5-min Rain = 0
KDMS 192055Z 33010KT 08/M01 A3025 RMK A01 T00771006  RH  056%=      5-min Rain = 0
KDMS 192100Z 33011KT 08/M01 A3025 RMK A01 T00781007  RH  056%=      5-min Rain = 0
KDMS 192105Z 33010G15KT 08/M01 A3025 RMK A01 T00771009  RH  055%=      5-min Rain = 0
KDMS 192110Z 32009G14KT 08/M01 A3025 RMK A01 T00801005  RH  055%=      5-min Rain = 0
KDMS 192115Z 32011G18KT 08/M01 A3025 RMK A01 T00801008  RH  054%=      5-min Rain = 0
KDMS 192120Z 31008KT 07/M01 A3025 RMK A01 T00741009  RH  056%=      5-min Rain = 0
KDMS 192125Z 32008KT 08/M01 A3025 RMK A01 T00781007  RH  055%=      5-min Rain = 0
KDMS 192130Z 33009KT 08/M01 A3025 RMK A01 T00811006  RH  055%=      5-min Rain = 0
KDMS 192135Z 33010KT 08/M01 A3025 RMK A01 T00811008  RH  054%=      5-min Rain = 0
KDMS 192140Z 32008KT 08/M01 A3025 RMK A01 T00811009  RH  054%=      5-min Rain = 0
KDMS 192145Z 31006KT 08/M01 A3025 RMK A01 T00821012  RH  052%=      5-min Rain = 0
KDMS 192150Z 27004KT 08/M01 A3025 RMK A01 T00831010  RH  053%=      5-min Rain = 0
KDMS 192155Z 29004KT 08/M01 A3025 RMK A01 T00831011  RH  052%=      5-min Rain = 0
KDMS 192200Z 32007KT 09/M01 A3025 RMK A01 T00851009  RH  052%=      5-min Rain = 0
KDMS 192205Z 33006KT 08/M01 A3025 RMK A01 T00841010  RH  052%=      5-min Rain = 0
KDMS 192210Z 31006KT 09/M01 A3025 RMK A01 T00851010  RH  052%=      5-min Rain = 0
KDMS 192215Z 32007KT 09/M01 A3025 RMK A01 T00851013  RH  051%=      5-min Rain = 0
KDMS 192220Z 32008KT 09/M01 A3025 RMK A01 T00851011  RH  051%=      5-min Rain = 0
KDMS 192225Z 31005KT 09/M01 A3025 RMK A01 T00851013  RH  051%=      5-min Rain = 0
KDMS 192230Z 33006KT 09/M02 A3025 RMK A01 T00861016  RH  049%=      5-min Rain = 0
KDMS 192235Z 32005KT 09/M01 A3025 RMK A01 T00861014  RH  050%=      5-min Rain = 0
KDMS 192240Z 32006KT 09/M02 A3025 RMK A01 T00871015  RH  049%=      5-min Rain = 0
KDMS 192245Z 31006KT 09/M02 A3024 RMK A01 T00861016  RH  049%=      5-min Rain = 0
KDMS 192250Z 33006KT 09/M02 A3024 RMK A01 T00861016  RH  049%=      5-min Rain = 0
KDMS 192255Z 34006KT 09/M02 A3024 RMK A01 T00851015  RH  050%=      5-min Rain = 0
KDMS 192300Z 33005KT 09/M01 A3024 RMK A01 T00851013  RH  051%=      5-min Rain = 0
KDMS 192305Z 34006KT 08/M01 A3024 RMK A01 T00841014  RH  050%=      5-min Rain = 0
KDMS 192310Z 34005KT 08/M01 A3025 RMK A01 T00831013  RH  051%=      5-min Rain = 0
KDMS 192315Z 33004KT 08/M02 A3025 RMK A01 T00831015  RH  051%=      5-min Rain = 0
KDMS 192320Z 33003KT 08/M01 A3025 RMK A01 T00831011  RH  052%=      5-min Rain = 0
KDMS 192325Z 34002KT 08/M02 A3025 RMK A01 T00821016  RH  050%=      5-min Rain = 0
KDMS 192330Z 35002KT 08/M02 A3025 RMK A01 T00811016  RH  051%=      5-min Rain = 0
KDMS 192335Z 36002KT 08/M01 A3025 RMK A01 T00801013  RH  052%=      5-min Rain = 0
KDMS 192340Z 36003KT 07/M01 A3025 RMK A01 T00741008  RH  057%=      5-min Rain = 0
KDMS 192345Z 35001KT 07/M01 A3025 RMK A01 T00731008  RH  057%=      5-min Rain = 0
KDMS 192350Z 01001KT 08/M01 A3025 RMK A01 T00781009  RH  055%=      5-min Rain = 0
KDMS 192355Z 01002KT 07/M01 A3025 RMK A01 T00731013  RH  055%=      5-min Rain = 0
KDMS 200000Z 02003KT 07/M02 A3025 RMK A01 T00701015  RH  055%=      5-min Rain = 0
KDMS 200005Z 03003KT 07/M02 A3025 RMK A01 T00661016  RH  056%=      5-min Rain = 0
KDMS 200010Z 03003KT 06/M02 A3024 RMK A01 T00621017  RH  058%=      5-min Rain = 0
KDMS 200015Z 05004KT 06/M02 A3025 RMK A01 T00561017  RH  060%=      5-min Rain = 0
KDMS 200020Z 06004KT 05/M02 A3025 RMK A01 T00491016  RH  063%=      5-min Rain = 0
KDMS 200025Z 07004KT 05/M02 A3025 RMK A01 T00511015  RH  063%=      5-min Rain = 0
KDMS 200030Z 06004KT 05/M01 A3025 RMK A01 T00501013  RH  064%=      5-min Rain = 0
KDMS 200035Z 06005KT 05/M01 A3025 RMK A01 T00451014  RH  066%=      5-min Rain = 0
KDMS 200040Z 06004KT 04/M01 A3025 RMK A01 T00421014  RH  068%=      5-min Rain = 0
KDMS 200045Z 06005KT 04/M02 A3025 RMK A01 T00401018  RH  066%=      5-min Rain = 0
KDMS 200050Z 07006KT 04/M02 A3025 RMK A01 T00381019  RH  067%=      5-min Rain = 0
KDMS 200055Z 07007KT 02/M02 A3025 RMK A01 T00241023  RH  072%=      5-min Rain = 0
KDMS 200100Z 07008KT 02/M03 A3024 RMK A01 T00161025  RH  074%=      5-min Rain = 0
KDMS 200105Z 08008KT 01/M03 A3024 RMK A01 T00111025  RH  077%=      5-min Rain = 0
KDMS 200110Z 08009KT 01/M02 A3023 RMK A01 T00091024  RH  079%=      5-min Rain = 0
KDMS 200115Z 09009KT 01/M02 A3023 RMK A01 T00101023  RH  079%=      5-min Rain = 0
KDMS 200120Z 09010KT 01/M02 A3023 RMK A01 T00111023  RH  079%=      5-min Rain = 0
KDMS 200125Z 09009KT 01/M02 A3023 RMK A01 T00111022  RH  079%=      5-min Rain = 0
KDMS 200130Z 10009KT 01/M02 A3022 RMK A01 T00111022  RH  079%=      5-min Rain = 0
KDMS 200135Z 10008KT 01/M02 A3022 RMK A01 T00111022  RH  079%=      5-min Rain = 0
KDMS 200140Z 10007KT 01/M02 A3023 RMK A01 T00111024  RH  078%=      5-min Rain = 0
KDMS 200145Z 11006KT 01/M03 A3023 RMK A01 T00101025  RH  078%=      5-min Rain = 0
KDMS 200150Z 11006KT 01/M03 A3023 RMK A01 T00081026  RH  078%=      5-min Rain = 0
KDMS 200155Z 10007KT 01/M03 A3024 RMK A01 T00081028  RH  077%=      5-min Rain = 0
KDMS 200200Z 10007KT 01/M03 A3024 RMK A01 T00061029  RH  078%=      5-min Rain = 0
KDMS 200205Z 12006KT 00/M03 A3025 RMK A01 T00041029  RH  079%=      5-min Rain = 0
KDMS 200210Z 12005KT 00/M03 A3025 RMK A01 T00041030  RH  079%=      5-min Rain = 0
KDMS 200215Z 14004KT 00/M03 A3026 RMK A01 T00041030  RH  079%=      5-min Rain = 0
KDMS 200220Z 14004KT M01/M03 A3026 RMK A01 T10051033  RH  082%=      5-min Rain = 0
KDMS 200225Z 13005KT M01/M03 A3025 RMK A01 T10051031  RH  083%=      5-min Rain = 0
KDMS 200230Z 12006KT M00/M03 A3025 RMK A01 T10031030  RH  082%=      5-min Rain = 0
KDMS 200235Z 12007KT 00/03 A3025 RMK A01 T00-00-30  RH  081%=      5-min Rain = 0
KDMS 200240Z 12007KT 00/M03 A3025 RMK A01 T00021030  RH  080%=      5-min Rain = 0
KDMS 200245Z 13006KT 00/M03 A3026 RMK A01 T00031031  RH  079%=      5-min Rain = 0
KDMS 200250Z 12008KT M00/M03 A3024 RMK A01 T10021033  RH  080%=      5-min Rain = 0
KDMS 200255Z 12008KT M00/M03 A3024 RMK A01 T10021032  RH  080%=      5-min Rain = 0
KDMS 200300Z 13009KT M00/M03 A3023 RMK A01 T10041033  RH  081%=      5-min Rain = 0
KDMS 200305Z 13008KT M00/M03 A3024 RMK A01 T10031034  RH  080%=      5-min Rain = 0
KDMS 200310Z 12007KT M00/M04 A3024 RMK A01 T10031036  RH  079%=      5-min Rain = 0
KDMS 200315Z 12007KT M01/M04 A3024 RMK A01 T10051037  RH  080%=      5-min Rain = 0
KDMS 200320Z 13007KT M01/M04 A3024 RMK A01 T10071037  RH  080%=      5-min Rain = 0
KDMS 200325Z 12006KT M01/M04 A3024 RMK A01 T10081037  RH  081%=      5-min Rain = 0
KDMS 200330Z 13006KT M01/M04 A3024 RMK A01 T10091039  RH  081%=      5-min Rain = 0
KDMS 200335Z 14006KT M01/M04 A3024 RMK A01 T10131040  RH  082%=      5-min Rain = 0
KDMS 200340Z 13006KT M01/M04 A3024 RMK A01 T10141040  RH  083%=      5-min Rain = 0
KDMS 200345Z 14007KT M01/M04 A3024 RMK A01 T10131040  RH  082%=      5-min Rain = 0
KDMS 200350Z 14007KT M01/M04 A3024 RMK A01 T10141041  RH  083%=      5-min Rain = 0
KDMS 200355Z 15007KT M02/M04 A3024 RMK A01 T10161042  RH  083%=      5-min Rain = 0
KDMS 200400Z 15007KT M02/M04 A3024 RMK A01 T10201043  RH  084%=      5-min Rain = 0
KDMS 200405Z 15007KT M02/M04 A3024 RMK A01 T10201043  RH  085%=      5-min Rain = 0
KDMS 200410Z 15007KT M02/M04 A3024 RMK A01 T10201043  RH  085%=      5-min Rain = 0
KDMS 200415Z 15007KT M02/M04 A3024 RMK A01 T10211043  RH  086%=      5-min Rain = 0
KDMS 200420Z 15007KT M02/M04 A3024 RMK A01 T10231043  RH  086%=      5-min Rain = 0
KDMS 200425Z 15007KT M02/M04 A3024 RMK A01 T10221043  RH  086%=      5-min Rain = 0
KDMS 200430Z 15006KT M02/M04 A3025 RMK A01 T10211044  RH  085%=      5-min Rain = 0
KDMS 200435Z 15006KT M02/M05 A3024 RMK A01 T10221045  RH  085%=      5-min Rain = 0
KDMS 200440Z 15006KT M02/M05 A3025 RMK A01 T10211045  RH  084%=      5-min Rain = 0
KDMS 200445Z 16006KT M02/M05 A3025 RMK A01 T10211045  RH  084%=      5-min Rain = 0
KDMS 200450Z 17006KT M02/M05 A3025 RMK A01 T10231047  RH  084%=      5-min Rain = 0
KDMS 200455Z 16007KT M03/M05 A3024 RMK A01 T10251048  RH  084%=      5-min Rain = 0
KDMS 200500Z 15007KT M03/M05 A3024 RMK A01 T10251046  RH  086%=      5-min Rain = 0
KDMS 200505Z 16008KT M02/M05 A3024 RMK A01 T10241046  RH  085%=      5-min Rain = 0
KDMS 200510Z 16007KT M02/M05 A3024 RMK A01 T10241046  RH  085%=      5-min Rain = 0
KDMS 200515Z 17007KT M02/M05 A3025 RMK A01 T10231046  RH  085%=      5-min Rain = 0
KDMS 200520Z 17007KT M02/M05 A3025 RMK A01 T10221045  RH  084%=      5-min Rain = 0
KDMS 200525Z 17006KT M02/M05 A3025 RMK A01 T10221046  RH  084%=      5-min Rain = 0
KDMS 200530Z 17007KT M02/M05 A3024 RMK A01 T10231046  RH  085%=      5-min Rain = 0
KDMS 200535Z 17007KT M02/M05 A3025 RMK A01 T10231046  RH  084%=      5-min Rain = 0
KDMS 200540Z 18008KT M02/M05 A3025 RMK A01 T10231046  RH  084%=      5-min Rain = 0
KDMS 200545Z 17008KT M02/M05 A3024 RMK A01 T10221046  RH  084%=      5-min Rain = 0
KDMS 200550Z 17009KT M02/M05 A3025 RMK A01 T10211046  RH  083%=      5-min Rain = 0
KDMS 200555Z 17008KT M02/M05 A3025 RMK A01 T10211046  RH  083%=      5-min Rain = 0

Page generated in 0.0091 seconds.